x

South Bermuda - 300 Nm Sse Of Bermuda (41049) Wave Buoy

10:50pm - Thu 17th Apr 2014 All times are UTC.

  • Sig Wave height 7.2ft
  • Swell Direction
  • Peak Period 10s
  • Average Period 6s
  • Wind
    18mph, 22mph gusts
  • Sea Temp 75°f
  • Air Temp 74°f
  • Sea Pressure 1025.1mb

More Historic Weather Station data

Upgrade to MSW Pro to gain access to the past 30 days of data for over 8000 Wavebouys and Weather Stations around the globe.

Join Pro

Comparision Forecast

View Surf forecast
   
Thu 04/17 10:50pm 7ft 10s 6s 18 22 mph 1025.1mb 75f 74f
9:50pm 9ft 8s 7s 18 25 mph 1024.6mb 75f 74f
8:50pm 8ft 8s 7s 16 20 mph 1024.5mb 75f 75f
7:50pm 9ft 9s 7s 18 22 mph 1024.2mb 75f 74f
6:50pm 9ft 9s 7s 18 22 mph 1024.5mb 75f 74f
5:50pm 9ft 9s 7s 20 22 mph 1024.7mb 75f 74f
4:50pm 8.5ft 9s 6s 20 25 mph 1024.8mb 75f 75f
3:50pm 8.5ft 9s 6s 18 22 mph 1025.2mb 75f 74f
2:50pm 8ft 9s 6s 22 25 mph 1024.8mb 75f 74f
1:50pm 9.5ft 9s 7s 20 25 mph 1024.6mb 75f 75f
12:50pm 9ft 9s 7s 20 27 mph 1024.1mb 75f 75f
11:50am 8ft 9s 6s 20 25 mph 1023.8mb 74f 74f
10:50am 9.5ft 9s 7s 20 22 mph 1023.3mb 74f 75f
9:50am 9ft 9s 7s 20 25 mph 1022.7mb 74f 74f
8:50am 8ft 9s 6s 20 25 mph 1022.1mb 74f 74f
7:50am 8ft 9s 6s 20 25 mph 1021.8mb 74f 74f
6:50am 8.5ft 9s 7s 20 25 mph 1022mb 74f 74f
5:50am 9.5ft 9s 7s 16 20 mph 1022.6mb 74f 72f
4:50am 9ft 10s 7s 22 27 mph 1023mb 74f 72f
3:50am 8ft 10s 6s 22 27 mph 1023.2mb 74f 73f
2:50am 8.5ft 9s 6s 22 27 mph 1023.1mb 74f 74f
1:50am 8ft 9s 6s 20 25 mph 1023mb 74f 74f
12:50am 8.5ft 9s 7s 18 22 mph 1022.8mb 74f 75f
Wed 04/16 11:50pm 8ft 9s 6s 20 25 mph 1022mb 74f 74f
10:50pm 9ft 8s 7s 16 20 mph 1021.6mb 74f 75f
9:50pm 8.5ft 9s 6s 18 22 mph 1020.8mb 75f 75f
8:50pm 9ft 9s 7s 20 22 mph 1020.5mb 75f 75f
7:50pm 10ft 9s 7s 22 27 mph 1020.1mb 75f 75f
6:50pm 9.5ft 9s 7s 20 22 mph 1020.2mb 75f 75f
5:50pm 10ft 9s 7s 20 22 mph 1020.6mb 75f 75f
4:50pm 10ft 9s 7s 20 25 mph 1020.6mb 74f 75f
3:50pm 10.5ft 9s 7s 22 25 mph 1020.8mb 74f 75f
2:50pm 11ft 9s 7s 22 29 mph 1020.9mb 74f 75f
1:50pm 10ft 9s 7s 22 25 mph 1021mb 74f 75f
12:50pm 11ft 10s 7s 25 29 mph 1020.2mb 74f 74f
11:50am 10ft 10s 7s 27 34 mph 1020.2mb 74f 71f
10:50am 11ft 9s 7s 25 29 mph 1019.8mb 74f 71f
9:50am 10ft 10s 7s 27 38 mph 1019.4mb 74f 72f
8:50am 10ft 9s 7s 20 25 mph 1019.5mb 74f 73f
7:50am 10ft 9s 7s 22 27 mph 1019.5mb 75f 71f
6:50am 9.5ft 10s 7s 22 27 mph 1019.2mb 75f 71f
5:50am 10ft 10s 7s 20 22 mph 1019.5mb 75f 73f
4:50am 9.5ft 9s 7s 22 27 mph 1019.8mb 75f 74f
3:50am 9ft 10s 6s 16 22 mph 1020.7mb 75f 71f
2:50am 9.5ft 9s 6s 20 27 mph 1020.4mb 75f 74f
1:50am 9ft 8s 6s 25 29 mph 1019.9mb 75f 74f
12:50am 9.5ft 9s 6s 25 29 mph 1019.8mb 75f 74f
Tue 04/15 11:50pm 10ft 8s 6s 25 29 mph 1019.1mb 75f 73f
10:50pm 9ft 6s 6s 25 31 mph 1018.7mb 75f 73f
9:50pm 10ft 8s 6s 25 31 mph 1018.4mb 75f 73f
8:50pm 9ft 9s 6s 27 34 mph 1018.2mb 75f 73f
7:50pm 9ft 8s 6s 22 38 mph 1018.3mb 75f 71f
6:50pm 7.5ft 8s 6s 29 36 mph 1018.1mb 75f 73f
5:50pm 7.5ft 9s 6s 22 29 mph 1018.7mb 76f 73f
4:50pm 7ft 8s 6s 20 25 mph 1019.2mb 76f 74f
3:50pm 7.5ft 7s 6s 18 20 mph 1019.3mb 75f 73f
2:50pm 8ft 7s 6s 20 25 mph 1019.4mb 75f 72f
1:50pm 7ft 9s 6s 20 29 mph 1019.8mb 75f 73f
12:50pm 7.5ft 8s 6s 16 20 mph 1019.7mb 75f 73f
11:50am 8ft 8s 6s 18 22 mph 1019.7mb 75f 73f
10:50am 7.5ft 7s 6s 20 22 mph 1019.3mb 75f 72f
9:50am 7.5ft 9s 6s 27 31 mph 1018.1mb 75f 71f
8:50am 7ft 7s 6s 22 29 mph 1017.8mb 75f 72f
7:50am 6.5ft 8s 6s 18 22 mph 1017.4mb 75f 73f
6:50am 6.5ft 8s 6s 18 25 mph 1018mb 75f 73f
5:50am 6.5ft 8s 6s 16 20 mph 1018.1mb 75f 72f
4:50am 6.5ft 8s 6s 20 22 mph 1018.5mb 75f 73f
3:50am 6.5ft 8s 6s 22 27 mph 1019mb 75f 73f
2:50am 6.5ft 9s 6s 20 25 mph 1019mb 75f 74f
1:50am 6ft 8s 6s 20 22 mph 1019.2mb 75f 75f
12:50am 6ft 8s 6s 13 16 mph 1019mb 75f 74f
Mon 04/14 11:50pm 8ft 8s 7s 13 16 mph 1018.4mb 75f 73f
10:50pm 8ft 8s 7s 18 22 mph 1017.9mb 75f 73f
9:50pm 7.5ft 8s 7s 11 13 mph 1017.7mb 75f 73f
8:50pm 7ft 8s 6s 9 11 mph 1017.4mb 75f 73f
7:50pm 7ft 8s 6s 13 16 mph 1017.5mb 75f 72f
6:50pm 7ft 8s 6s 16 18 mph 1017.5mb 75f 72f
5:50pm 7.5ft 8s 6s 16 20 mph 1018.3mb 75f 72f
4:50pm 8ft 8s 6s 16 20 mph 1018.8mb 75f 72f
3:50pm 8ft 8s 6s 16 20 mph 1019.3mb 75f 72f
2:50pm 7.5ft 8s 6s 18 22 mph 1019.6mb 75f 73f
1:50pm 7.5ft 8s 6s 22 25 mph 1019.3mb 75f 72f
11:50am 7ft 8s 6s 20 25 mph 1018.9mb 75f 72f
10:50am 7ft 8s 6s 20 25 mph 1018.8mb 75f 72f
9:50am 7ft 8s 6s 20 25 mph 1018.4mb 75f 72f
8:50am 7ft 8s 6s 20 25 mph 1018mb 75f 72f
7:50am 7ft 8s 6s 20 25 mph 1017.9mb 75f 72f
6:50am 7ft 8s 6s 20 25 mph 1018.2mb 75f 72f
5:50am 7.5ft 8s 6s 20 25 mph 1018.6mb 75f 72f
4:50am 7.5ft 8s 6s 22 27 mph 1019.1mb 75f 72f
3:50am 7ft 8s 6s 22 25 mph 1020.1mb 75f 71f
2:50am 8ft 8s 6s 22 29 mph 1020.2mb 75f 71f
1:50am 8ft 8s 6s 25 29 mph 1020.1mb 75f 71f
12:50am 7.5ft 8s 6s 22 27 mph 1020.2mb 75f 71f